Time;durP1;ratioP1;P1;durP2;ratioP2;P2;SDS_P1;SDS_P2;PMS_P1;PMS_P2;Temp;Humidity;BMP_temperature;BMP_pressure;BME280_temperature;BME280_humidity;BME280_pressure;Samples;Min_cycle;Max_cycle;Signal;HPM_P1;HPM_P2
2022/12/14 00:02:11;;;;;;;27.42;25.02;;;;;;;1.77;69.73;94614.66;5017822;28;20182;-68
2022/12/14 00:04:38;;;;;;;27.20;24.70;;;;;;;1.70;70.67;94614.28;5034845;28;20511;-69
2022/12/14 00:07:05;;;;;;;27.17;24.77;;;;;;;1.65;70.73;94619.84;5017522;28;20198;-68
2022/12/14 00:09:34;;;;;;;27.35;25.02;;;;;;;1.64;70.48;94621.75;5018038;28;20217;-68
2022/12/14 00:12:01;;;;;;;26.55;24.15;;;;;;;1.64;70.58;94618.25;5017484;28;20209;-68
2022/12/14 00:14:28;;;;;;;26.95;24.55;;;;;;;1.63;71.04;94627.47;5017363;28;20218;-68
2022/12/14 00:16:55;;;;;;;26.90;24.50;;;;;;;1.61;70.82;94625.09;5035192;28;20195;-68
2022/12/14 00:19:22;;;;;;;26.55;24.25;;;;;;;1.61;71.22;94627.81;5001337;28;20305;-68
2022/12/14 00:21:49;;;;;;;27.17;24.83;;;;;;;1.60;71.84;94620.78;5035004;28;20201;-68
2022/12/14 00:24:15;;;;;;;27.58;25.15;;;;;;;1.57;71.77;94628.72;5017726;28;20205;-68
2022/12/14 00:26:44;;;;;;;27.38;24.88;;;;;;;1.54;71.73;94626.63;5034475;28;20210;-68
2022/12/14 00:29:11;;;;;;;27.17;24.77;;;;;;;1.54;71.89;94622.00;5034583;28;20241;-68
2022/12/14 00:31:38;;;;;;;26.90;24.50;;;;;;;1.57;72.06;94620.56;5034745;28;20563;-68
2022/12/14 00:34:05;;;;;;;27.90;25.40;;;;;;;1.55;72.34;94625.50;5017498;28;20209;-68
2022/12/14 00:36:35;;;;;;;27.50;25.10;;;;;;;1.51;72.45;94627.22;5017998;28;20229;-68
2022/12/14 00:39:02;;;;;;;26.88;24.48;;;;;;;1.48;72.80;94627.84;5017642;28;20248;-68
2022/12/14 00:41:28;;;;;;;27.42;25.02;;;;;;;1.48;72.99;94633.28;5018661;28;20205;-68
2022/12/14 00:43:56;;;;;;;28.13;25.65;;;;;;;1.45;72.37;94626.53;5021061;28;20554;-68
2022/12/14 00:46:23;;;;;;;26.50;24.10;;;;;;;1.38;73.54;94626.97;5021156;28;20649;-69
2022/12/14 00:48:50;;;;;;;28.17;25.65;;;;;;;1.41;73.72;94628.25;5021719;28;20198;-68
2022/12/14 00:51:17;;;;;;;27.73;25.30;;;;;;;1.42;74.00;94627.16;5021393;28;20203;-68
2022/12/14 00:53:44;;;;;;;28.30;25.70;;;;;;;1.41;74.07;94639.91;5021307;28;20225;-68
2022/12/14 00:56:11;;;;;;;27.73;25.25;;;;;;;1.39;74.20;94633.22;5038518;28;20214;-68
2022/12/14 00:58:38;;;;;;;28.80;26.20;;;;;;;1.40;74.46;94626.66;5021443;28;20206;-68
2022/12/14 01:01:07;;;;;;;29.83;27.15;;;;;;;1.35;74.75;94626.78;5021144;28;20537;-68
2022/12/14 01:03:34;;;;;;;28.77;26.25;;;;;;;1.38;74.36;94626.16;5021155;28;20202;-68
2022/12/14 01:06:01;;;;;;;29.35;26.80;;;;;;;1.41;74.50;94620.91;5020989;28;20198;-68
2022/12/14 01:08:33;;;;;;;28.70;26.17;;;;;;;1.46;74.32;94624.63;5038674;28;20196;-68
2022/12/14 01:11:04;;;;;;;29.02;26.42;;;;;;;1.43;74.53;94615.97;5021245;28;20301;-68
2022/12/14 01:13:31;;;;;;;28.83;26.23;;;;;;;1.37;74.43;94621.81;5004909;28;20583;-68
2022/12/14 01:16:03;;;;;;;27.92;25.33;;;;;;;1.39;74.87;94625.84;5020888;28;20222;-68
2022/12/14 01:18:34;;;;;;;24.52;22.33;;;;;;;1.44;74.81;94614.06;5038280;28;20244;-68
2022/12/14 01:21:12;;;;;;;25.10;22.90;;;;;;;1.43;75.05;94621.41;5038204;28;20324;-68
2022/12/14 01:23:39;;;;;;;24.30;22.10;;;;;;;1.48;74.83;94625.13;5037821;28;20194;-68
2022/12/14 01:26:05;;;;;;;21.55;19.65;;;;;;;1.54;75.17;94613.84;5020581;28;20213;-68
2022/12/14 01:28:34;;;;;;;19.95;18.25;;;;;;;1.57;74.78;94607.00;5020438;28;20199;-68
2022/12/14 01:31:05;;;;;;;18.00;16.38;;;;;;;1.60;74.55;94612.63;5037954;28;20208;-68
2022/12/14 01:33:34;;;;;;;14.18;12.95;;;;;;;1.67;74.56;94598.56;5038121;28;20187;-68
2022/12/14 01:36:04;;;;;;;11.45;10.52;;;;;;;1.69;74.09;94601.78;5020378;28;20225;-68
2022/12/14 01:38:31;;;;;;;10.20;9.40;;;;;;;1.69;74.11;94593.63;5037822;28;20207;-68
2022/12/14 01:40:58;;;;;;;9.02;8.23;;;;;;;1.74;73.65;94592.72;5038251;28;20249;-68
2022/12/14 01:43:26;;;;;;;9.13;8.32;;;;;;;1.73;73.05;94583.75;5037492;28;20182;-68
2022/12/14 01:45:53;;;;;;;8.43;7.72;;;;;;;1.67;73.11;94580.38;5037330;28;20198;-68
2022/12/14 01:48:21;;;;;;;8.88;8.18;;;;;;;1.66;73.18;94586.09;5020232;28;20206;-68
2022/12/14 01:50:49;;;;;;;8.02;7.43;;;;;;;1.72;73.22;94578.63;5020471;28;20205;-68
2022/12/14 01:53:19;;;;;;;8.45;7.75;;;;;;;1.67;73.31;94582.25;5019451;28;20205;-68
2022/12/14 01:55:49;;;;;;;8.45;7.85;;;;;;;1.64;73.55;94582.91;5019877;28;20234;-68
2022/12/14 01:58:19;;;;;;;8.52;7.82;;;;;;;1.61;73.94;94580.78;5019956;28;20194;-68
2022/12/14 02:00:45;;;;;;;8.10;7.50;;;;;;;1.63;74.09;94581.28;5020381;28;20194;-68
2022/12/14 02:03:15;;;;;;;7.80;7.20;;;;;;;1.60;73.79;94584.63;5019938;28;20221;-68
2022/12/14 02:05:44;;;;;;;8.52;7.90;;;;;;;1.56;74.00;94589.06;5019857;28;20529;-68
2022/12/14 02:08:13;;;;;;;8.15;7.55;;;;;;;1.58;74.03;94590.34;5019773;28;20545;-68
2022/12/14 02:10:40;;;;;;;7.50;6.90;;;;;;;1.67;73.83;94584.97;5020106;28;20203;-68
2022/12/14 02:13:13;;;;;;;8.68;7.88;;;;;;;1.65;74.12;94574.44;5019785;28;20206;-68
2022/12/14 02:15:40;;;;;;;8.73;8.02;;;;;;;1.65;74.14;94579.06;5019765;28;20222;-68
2022/12/14 02:18:09;;;;;;;8.40;7.70;;;;;;;1.62;74.26;94575.03;5019657;28;20218;-68
2022/12/14 02:20:44;;;;;;;8.43;7.80;;;;;;;1.60;73.88;94565.59;5019806;28;20213;-68
2022/12/14 02:23:34;;;;;;;7.63;7.03;;;;;;;1.52;73.48;94567.13;5019841;28;20213;-68
2022/12/14 02:26:43;;;;;;;7.78;7.18;;;;;;;1.57;73.69;94566.22;5036890;28;20245;-68
2022/12/14 02:29:32;;;;;;;8.13;7.53;;;;;;;1.55;73.05;94571.94;5015884;28;20621;-68
2022/12/14 02:32:07;;;;;;;8.07;7.38;;;;;;;1.47;73.59;94559.09;5032958;28;20210;-68
2022/12/14 02:34:41;;;;;;;7.97;7.32;;;;;;;1.33;74.41;94556.41;5016164;28;20658;-68
2022/12/14 02:37:14;;;;;;;7.93;7.30;;;;;;;1.34;74.49;94554.50;5016398;28;20199;-68
2022/12/14 02:39:45;;;;;;;8.23;7.57;;;;;;;1.38;74.04;94564.47;5017025;28;20253;-68
2022/12/14 02:42:15;;;;;;;8.65;7.95;;;;;;;1.37;74.65;94557.41;5016810;28;20191;-68
2022/12/14 02:44:50;;;;;;;8.35;7.65;;;;;;;1.41;74.16;94555.69;5017009;28;20222;-68
2022/12/14 02:47:23;;;;;;;7.80;7.10;;;;;;;1.50;74.18;94563.13;5016809;28;20222;-68
2022/12/14 02:50:01;;;;;;;7.93;7.20;;;;;;;1.51;73.99;94545.69;5015899;28;20203;-68
2022/12/14 02:52:33;;;;;;;7.32;6.75;;;;;;;1.56;73.42;94546.38;5016238;28;20196;-68
2022/12/14 02:55:05;;;;;;;7.22;6.72;;;;;;;1.50;73.87;94544.91;5015655;28;20219;-68
2022/12/14 02:57:36;;;;;;;8.10;7.43;;;;;;;1.50;74.05;94554.97;5015888;28;20202;-68
2022/12/14 03:00:06;;;;;;;7.95;7.25;;;;;;;1.48;73.96;94549.03;5015261;28;20198;-68
2022/12/14 03:02:35;;;;;;;7.60;7.00;;;;;;;1.48;74.13;94549.81;5016180;28;20195;-68
2022/12/14 03:05:01;;;;;;;7.30;6.70;;;;;;;1.50;73.67;94544.91;5014755;28;20199;-68
2022/12/14 03:07:36;;;;;;;7.40;6.80;;;;;;;1.52;73.17;94547.28;5015368;28;20199;-68
2022/12/14 03:10:09;;;;;;;7.13;6.60;;;;;;;1.51;73.39;94553.84;5016340;28;20201;-68
2022/12/14 03:12:39;;;;;;;7.18;6.60;;;;;;;1.53;72.98;94559.78;5016567;28;20194;-68
2022/12/14 03:15:09;;;;;;;7.78;7.18;;;;;;;1.51;73.01;94541.06;5015233;28;20226;-68
2022/12/14 03:17:37;;;;;;;7.55;6.85;;;;;;;1.50;72.41;94550.34;5015084;28;20635;-68
2022/12/14 03:20:08;;;;;;;7.70;7.10;;;;;;;1.49;72.52;94545.19;5015231;28;20650;-68
2022/12/14 03:22:39;;;;;;;7.75;7.15;;;;;;;1.48;72.67;94544.38;5015809;28;20238;-68
2022/12/14 03:25:10;;;;;;;6.82;6.22;;;;;;;1.52;72.73;94539.13;5015119;28;20199;-68
2022/12/14 03:27:39;;;;;;;7.07;6.50;;;;;;;1.56;72.69;94538.22;5015165;28;20199;-68
2022/12/14 03:30:11;;;;;;;7.05;6.55;;;;;;;1.53;71.71;94530.69;5014731;28;20245;-68
2022/12/14 03:32:40;;;;;;;6.80;6.30;;;;;;;1.57;72.15;94550.72;5014935;28;20219;-68
2022/12/14 03:35:11;;;;;;;6.80;6.20;;;;;;;1.61;71.34;94542.72;5015284;28;20211;-68
2022/12/14 03:37:40;;;;;;;6.30;5.82;;;;;;;1.61;70.56;94543.53;5015631;28;20608;-68
2022/12/14 03:40:10;;;;;;;7.00;6.40;;;;;;;1.64;71.99;94547.56;5014632;28;20202;-68
2022/12/14 03:42:41;;;;;;;6.82;6.32;;;;;;;1.65;71.59;94547.25;5015887;28;20257;-68
2022/12/14 03:45:16;;;;;;;6.00;5.53;;;;;;;1.66;71.33;94557.00;5014613;28;20191;-67
2022/12/14 03:47:54;;;;;;;6.95;6.35;;;;;;;1.68;71.36;94543.91;5014726;28;20209;-67
2022/12/14 03:50:24;;;;;;;6.90;6.40;;;;;;;1.70;70.68;94543.59;5015744;28;20195;-68
2022/12/14 03:52:56;;;;;;;8.02;7.32;;;;;;;1.69;71.01;94541.97;5015419;28;20604;-68
2022/12/14 03:55:25;;;;;;;8.20;7.53;;;;;;;1.68;71.17;94540.38;5015357;28;20211;-68
2022/12/14 03:58:07;;;;;;;7.95;7.35;;;;;;;1.71;70.46;94542.50;5014752;28;20207;-68
2022/12/14 04:00:44;;;;;;;7.32;6.72;;;;;;;1.71;70.16;94547.09;5015839;28;20187;-68
2022/12/14 04:03:16;;;;;;;7.35;6.70;;;;;;;1.69;70.33;94542.78;5014952;28;20203;-68
2022/12/14 04:05:45;;;;;;;7.47;6.88;;;;;;;1.69;70.20;94550.13;5014700;28;20223;-67
2022/12/14 04:08:17;;;;;;;7.07;6.47;;;;;;;1.70;69.72;94557.19;5014638;28;20626;-67
2022/12/14 04:19:20;;;;;;;10.45;9.55;;;;;;;1.70;69.83;94551.75;5015096;28;20191;-68
2022/12/14 04:21:50;;;;;;;7.50;7.00;;;;;;;1.70;69.82;94554.47;5014261;28;20199;-68
2022/12/14 04:27:06;;;;;;;7.45;6.85;;;;;;;1.75;69.50;94539.97;5015048;28;20182;-68
2022/12/14 04:32:24;;;;;;;7.28;6.68;;;;;;;1.69;70.19;94550.13;5014983;28;20615;-68
2022/12/14 04:34:54;;;;;;;7.47;6.88;;;;;;;1.66;69.51;94558.91;5014325;28;20203;-68
2022/12/14 04:37:22;;;;;;;6.88;6.38;;;;;;;1.67;69.81;94560.50;5015194;28;20223;-68
2022/12/14 04:39:52;;;;;;;7.72;7.13;;;;;;;1.67;70.13;94564.06;5014284;28;20199;-68
2022/12/14 04:42:20;;;;;;;7.10;6.60;;;;;;;1.70;70.23;94565.34;5013919;28;20286;-68
2022/12/14 04:44:50;;;;;;;6.95;6.45;;;;;;;1.69;70.09;94564.53;5015170;28;20188;-68
2022/12/14 04:47:18;;;;;;;6.63;6.13;;;;;;;1.66;70.14;94565.16;5015169;28;20183;-68
2022/12/14 04:49:50;;;;;;;7.53;6.93;;;;;;;1.66;70.00;94564.34;5014384;28;20195;-68
2022/12/14 04:52:20;;;;;;;8.60;8.00;;;;;;;1.67;69.71;94563.22;5015088;28;20198;-68
2022/12/14 04:54:49;;;;;;;8.18;7.57;;;;;;;1.67;70.41;94560.50;5030743;28;20203;-68
2022/12/14 04:57:20;;;;;;;10.35;9.45;;;;;;;1.68;70.47;94554.78;5014686;28;20215;-68
2022/12/14 04:59:47;;;;;;;11.25;10.27;;;;;;;1.69;70.27;94550.13;5014175;28;20202;-69
2022/12/14 05:02:19;;;;;;;10.98;10.07;;;;;;;1.63;71.21;94546.75;5013741;28;20207;-69
2022/12/14 05:04:57;;;;;;;10.52;9.63;;;;;;;1.60;70.57;94552.00;5013755;28;20206;-68
2022/12/14 05:07:32;;;;;;;11.30;10.25;;;;;;;1.60;71.26;94543.84;5014954;28;20183;-68
2022/12/14 05:10:01;;;;;;;14.43;13.00;;;;;;;1.64;70.97;94544.84;5014087;28;20199;-67
2022/12/14 05:12:34;;;;;;;11.77;10.40;;;;;;;1.67;70.75;94557.78;5015229;28;20192;-67
2022/12/14 05:15:04;;;;;;;11.27;10.18;;;;;;;1.71;70.87;94564.25;5014190;28;20207;-67
2022/12/14 05:17:35;;;;;;;9.30;8.48;;;;;;;1.70;71.84;94576.22;5013946;28;20219;-67
2022/12/14 05:20:03;;;;;;;8.88;8.18;;;;;;;1.67;71.75;94585.81;5013799;28;20203;-67
2022/12/14 05:22:31;;;;;;;9.02;8.23;;;;;;;1.61;72.58;94587.03;5013856;28;20586;-67
2022/12/14 05:24:57;;;;;;;8.32;7.70;;;;;;;1.64;72.02;94589.13;5014204;28;20214;-67
2022/12/14 05:27:24;;;;;;;8.60;7.90;;;;;;;1.67;72.01;94590.41;5014883;28;20199;-67
2022/12/14 05:29:52;;;;;;;8.25;7.55;;;;;;;1.65;71.28;94603.53;5029150;28;20296;-68
2022/12/14 05:32:19;;;;;;;8.85;8.15;;;;;;;1.65;72.17;94612.47;5038525;28;20194;-67
2022/12/14 05:34:46;;;;;;;8.45;7.72;;;;;;;1.62;72.13;94604.94;5021314;28;20202;-67
2022/12/14 05:37:14;;;;;;;8.38;7.68;;;;;;;1.60;72.15;94606.38;5020577;28;20245;-67
2022/12/14 05:39:41;;;;;;;8.77;7.97;;;;;;;1.59;72.73;94591.97;5020323;28;20202;-67
2022/12/14 05:42:07;;;;;;;8.98;8.25;;;;;;;1.59;72.64;94585.72;5020089;28;20539;-67
2022/12/14 05:44:34;;;;;;;9.73;8.93;;;;;;;1.63;72.66;94581.28;5020055;28;20205;-67
2022/12/14 05:47:01;;;;;;;9.50;8.70;;;;;;;1.61;72.18;94584.31;5020498;28;20199;-67
2022/12/14 05:49:28;;;;;;;8.88;8.18;;;;;;;1.65;72.03;94584.50;5020322;28;20198;-67
2022/12/14 05:51:55;;;;;;;7.97;7.03;;;;;;;1.65;72.26;94593.44;5020245;28;20205;-67
2022/12/14 05:54:23;;;;;;;6.15;5.65;;;;;;;1.62;71.68;94599.50;5020081;28;20203;-67
2022/12/14 05:56:51;;;;;;;6.03;5.43;;;;;;;1.63;71.51;94594.88;5037599;28;20215;-67
2022/12/14 05:59:18;;;;;;;7.40;6.70;;;;;;;1.60;71.99;94596.31;5037511;28;20183;-67
2022/12/14 06:01:46;;;;;;;8.02;7.22;;;;;;;1.53;72.28;94606.00;5037386;28;20228;-67
2022/12/14 06:04:13;;;;;;;7.65;6.95;;;;;;;1.50;72.72;94598.44;5019747;28;20597;-67
2022/12/14 06:06:40;;;;;;;7.68;7.05;;;;;;;1.51;72.79;94603.56;5036662;28;20286;-67
2022/12/14 06:09:07;;;;;;;8.40;7.70;;;;;;;1.58;72.91;94593.06;5020408;28;20198;-67
2022/12/14 06:11:39;;;;;;;8.45;7.85;;;;;;;1.57;73.70;94596.13;5019889;28;20230;-67
2022/12/14 06:14:06;;;;;;;8.13;7.43;;;;;;;1.62;74.08;94590.53;5037188;28;20190;-67
2022/12/14 06:16:33;;;;;;;6.38;5.88;;;;;;;1.55;73.24;94590.97;5036891;28;20207;-67
2022/12/14 06:19:01;;;;;;;7.20;6.63;;;;;;;1.59;73.66;94594.69;5019876;28;20202;-67
2022/12/14 06:21:30;;;;;;;7.63;7.03;;;;;;;1.60;73.35;94598.22;5019435;28;20537;-67
2022/12/14 06:23:57;;;;;;;6.25;5.75;;;;;;;1.59;72.67;94607.47;5037097;28;20186;-67
2022/12/14 06:26:24;;;;;;;6.78;6.25;;;;;;;1.61;72.06;94611.50;5019759;28;20218;-67
2022/12/14 06:28:53;;;;;;;6.05;5.63;;;;;;;1.59;71.99;94607.47;5019208;28;20567;-67
2022/12/14 06:31:21;;;;;;;6.70;6.10;;;;;;;1.56;71.94;94617.06;5036608;28;20202;-67
2022/12/14 06:33:49;;;;;;;6.97;6.32;;;;;;;1.59;72.60;94610.19;5036874;28;20211;-67
2022/12/14 06:36:21;;;;;;;7.65;7.05;;;;;;;1.54;72.65;94608.41;5019282;28;20516;-67
2022/12/14 06:38:50;;;;;;;7.53;7.00;;;;;;;1.53;73.57;94609.50;5035748;28;20240;-67
2022/12/14 06:41:18;;;;;;;8.05;7.45;;;;;;;1.24;74.01;94606.38;5019709;28;20198;-67
2022/12/14 06:43:44;;;;;;;8.68;7.88;;;;;;;1.19;74.68;94615.41;5036729;28;20190;-67
2022/12/14 06:46:14;;;;;;;7.90;7.30;;;;;;;1.29;74.91;94609.78;5019189;28;20202;-67
2022/12/14 06:48:41;;;;;;;8.43;7.63;;;;;;;1.27;75.45;94605.75;5019262;28;20205;-67
2022/12/14 06:51:09;;;;;;;9.43;8.63;;;;;;;1.27;74.85;94614.72;5019123;28;20205;-67
2022/12/14 06:53:36;;;;;;;8.98;8.07;;;;;;;1.28;74.59;94626.38;5036413;28;20186;-67
2022/12/14 06:56:07;;;;;;;8.27;7.57;;;;;;;1.28;74.20;94626.38;5035974;28;20653;-67
2022/12/14 06:58:34;;;;;;;8.77;8.00;;;;;;;1.23;74.22;94635.44;5019108;28;20261;-67
2022/12/14 07:01:02;;;;;;;8.35;7.65;;;;;;;1.29;74.33;94647.00;5018877;28;20206;-67
2022/12/14 07:03:30;;;;;;;7.93;7.32;;;;;;;1.28;74.05;94639.97;5036421;28;20260;-67
2022/12/14 07:05:57;;;;;;;8.15;7.55;;;;;;;1.28;74.32;94642.69;5018769;28;20218;-67
2022/12/14 07:08:24;;;;;;;9.25;8.35;;;;;;;1.30;74.96;94645.88;5036205;28;20217;-67
2022/12/14 07:10:51;;;;;;;9.95;8.98;;;;;;;1.26;74.63;94642.97;5036099;28;20178;-67
2022/12/14 07:13:18;;;;;;;10.13;9.32;;;;;;;1.30;75.67;94637.75;5018964;28;20205;-67
2022/12/14 07:15:45;;;;;;;10.77;9.90;;;;;;;1.34;74.89;94636.00;5036291;28;20320;-67
2022/12/14 07:18:12;;;;;;;11.70;10.80;;;;;;;1.36;75.28;94640.03;5034901;28;20245;-67
2022/12/14 07:20:41;;;;;;;12.60;11.52;;;;;;;1.34;75.18;94634.09;5018570;28;20198;-67
2022/12/14 07:23:08;;;;;;;11.30;10.43;;;;;;;1.37;75.02;94641.66;5018706;28;20292;-67
2022/12/14 07:25:35;;;;;;;11.00;10.15;;;;;;;1.41;74.98;94644.56;5036036;28;20273;-67
2022/12/14 07:28:02;;;;;;;12.70;11.63;;;;;;;1.40;75.01;94637.53;5018096;28;20198;-67
2022/12/14 07:30:29;;;;;;;12.35;11.35;;;;;;;1.42;74.76;94648.91;5035271;28;20238;-67
2022/12/14 07:32:56;;;;;;;13.27;12.18;;;;;;;1.45;74.94;94651.00;5018618;28;20198;-67
2022/12/14 07:35:22;;;;;;;12.50;11.48;;;;;;;1.51;75.18;94647.06;5018326;28;20661;-67
2022/12/14 07:37:50;;;;;;;12.52;11.40;;;;;;;1.52;73.68;94653.28;5018031;28;20222;-67
2022/12/14 07:40:17;;;;;;;12.63;11.63;;;;;;;1.51;74.24;94649.78;5018429;28;20205;-67
2022/12/14 07:42:48;;;;;;;13.20;12.10;;;;;;;1.52;74.33;94648.66;5018118;28;20654;-67
2022/12/14 07:45:14;;;;;;;13.13;12.02;;;;;;;1.55;74.58;94649.97;5018356;28;20216;-67
2022/12/14 07:47:41;;;;;;;12.40;11.40;;;;;;;1.56;74.47;94649.69;5017809;28;20631;-67
2022/12/14 07:50:09;;;;;;;12.50;11.50;;;;;;;1.54;74.45;94646.44;5017784;28;20202;-67
2022/12/14 07:52:36;;;;;;;13.35;12.30;;;;;;;1.57;74.65;94647.75;5017820;28;20252;-67
2022/12/14 07:55:04;;;;;;;14.13;13.02;;;;;;;1.63;74.33;94639.19;5018302;28;20198;-67
2022/12/14 07:57:31;;;;;;;14.25;13.15;;;;;;;1.62;74.14;94650.34;5018019;28;20210;-67
2022/12/14 07:59:58;;;;;;;15.48;14.27;;;;;;;1.61;74.28;94654.19;5017991;28;20216;-67
2022/12/14 08:02:28;;;;;;;16.17;14.68;;;;;;;1.66;74.54;94654.06;5034517;28;20264;-67
2022/12/14 08:04:55;;;;;;;13.48;12.40;;;;;;;1.61;74.44;94656.91;5035355;28;20183;-67
2022/12/14 08:07:22;;;;;;;13.38;12.38;;;;;;;1.60;74.08;94663.47;5035494;28;20187;-67
2022/12/14 08:09:49;;;;;;;12.68;11.68;;;;;;;1.62;74.72;94670.19;5035167;28;20202;-67
2022/12/14 08:12:17;;;;;;;13.15;12.15;;;;;;;1.62;74.44;94666.66;5017482;28;20741;-67
2022/12/14 08:14:44;;;;;;;12.40;11.40;;;;;;;1.57;74.75;94672.22;5018258;28;20210;-67
2022/12/14 08:17:11;;;;;;;12.48;11.45;;;;;;;1.56;75.09;94687.72;5017732;28;20202;-67
2022/12/14 08:19:37;;;;;;;12.32;11.23;;;;;;;1.56;74.98;94686.91;5017777;28;20190;-67
2022/12/14 08:22:04;;;;;;;12.52;11.43;;;;;;;1.53;74.68;94687.53;5017780;28;20205;-67
2022/12/14 08:24:31;;;;;;;12.90;11.90;;;;;;;1.54;74.90;94686.41;5017692;28;20198;-67
2022/12/14 08:26:58;;;;;;;12.43;11.43;;;;;;;1.51;74.82;94687.81;5017770;28;20204;-67
2022/12/14 08:29:26;;;;;;;13.05;11.95;;;;;;;1.46;74.91;94689.88;5014387;28;20682;-67
2022/12/14 08:31:55;;;;;;;13.02;12.05;;;;;;;1.43;74.90;94691.28;5014110;28;20203;-67
2022/12/14 08:34:23;;;;;;;13.70;12.60;;;;;;;1.41;75.39;94682.59;5014339;28;20206;-67
2022/12/14 08:36:50;;;;;;;13.48;12.32;;;;;;;1.44;75.57;94673.84;5014293;28;20276;-67
2022/12/14 08:39:17;;;;;;;13.25;12.18;;;;;;;1.46;75.78;94668.13;5015124;28;20214;-67
2022/12/14 08:41:43;;;;;;;13.77;12.68;;;;;;;1.48;75.47;94672.13;5014084;28;20647;-67
2022/12/14 08:44:11;;;;;;;14.77;13.65;;;;;;;1.50;75.55;94686.22;5014172;28;20192;-67
2022/12/14 08:46:41;;;;;;;14.82;13.52;;;;;;;1.53;75.67;94691.06;5014328;28;20207;-67
2022/12/14 08:49:08;;;;;;;13.98;12.77;;;;;;;1.61;75.62;94673.22;5014324;28;20203;-67
2022/12/14 08:51:37;;;;;;;16.05;14.68;;;;;;;1.70;75.40;94679.53;5013958;28;20608;-67
2022/12/14 08:54:04;;;;;;;19.95;18.13;;;;;;;1.72;75.05;94671.88;5013831;28;20206;-67
2022/12/14 08:56:31;;;;;;;17.77;16.27;;;;;;;1.70;74.95;94676.81;5014399;28;20199;-67
2022/12/14 08:58:58;;;;;;;16.75;15.45;;;;;;;1.68;74.61;94665.44;5015034;28;20203;-67
2022/12/14 09:01:28;;;;;;;15.63;14.30;;;;;;;1.66;74.83;94663.00;5014361;28;20188;-67
2022/12/14 09:03:56;;;;;;;16.83;15.43;;;;;;;1.63;74.92;94670.97;5017211;28;20205;-67
2022/12/14 09:06:26;;;;;;;16.80;15.40;;;;;;;1.65;74.51;94672.28;5018383;28;20188;-67
2022/12/14 09:08:53;;;;;;;20.88;18.98;;;;;;;1.62;75.35;94663.94;5018761;28;20209;-67
2022/12/14 09:11:21;;;;;;;18.27;16.77;;;;;;;1.62;75.47;94656.59;5017869;28;20249;-67
2022/12/14 09:13:48;;;;;;;17.63;16.08;;;;;;;1.61;75.44;94662.34;5018584;28;20202;-67
2022/12/14 09:16:17;;;;;;;17.63;16.23;;;;;;;1.64;75.13;94650.88;5017569;28;20277;-67
2022/12/14 09:18:46;;;;;;;17.88;16.35;;;;;;;1.68;74.51;94658.09;5017741;28;20230;-67
2022/12/14 09:21:16;;;;;;;21.92;19.90;;;;;;;1.68;74.62;94658.09;5017612;28;20203;-67
2022/12/14 09:23:44;;;;;;;24.92;22.73;;;;;;;1.68;75.07;94649.13;5017588;28;20206;-67
2022/12/14 09:26:13;;;;;;;21.08;19.20;;;;;;;1.68;75.06;94647.22;5018252;28;20191;-67
2022/12/14 09:28:41;;;;;;;22.10;20.10;;;;;;;1.72;74.87;94635.72;5018393;28;20187;-67
2022/12/14 09:31:11;;;;;;;24.27;22.08;;;;;;;1.74;75.09;94626.13;5020641;28;20210;-67
2022/12/14 09:33:38;;;;;;;24.83;22.55;;;;;;;1.74;74.84;94630.78;5020726;28;20514;-67
2022/12/14 09:36:07;;;;;;;23.00;21.13;;;;;;;1.77;74.92;94628.25;5036756;28;20203;-67
2022/12/14 09:38:38;;;;;;;24.85;22.85;;;;;;;1.74;75.29;94628.06;5020342;28;20222;-67
2022/12/14 09:41:06;;;;;;;19.08;17.58;;;;;;;1.78;75.76;94642.63;5020418;28;20206;-67
2022/12/14 09:43:38;;;;;;;18.60;17.05;;;;;;;1.80;75.28;94641.22;5020523;28;20194;-67
2022/12/14 09:46:15;;;;;;;20.55;18.75;;;;;;;1.83;75.42;94639.81;5020649;28;20202;-67
2022/12/14 09:48:43;;;;;;;21.20;19.40;;;;;;;1.85;75.27;94635.69;5020700;28;20225;-67
2022/12/14 09:51:13;;;;;;;20.27;18.55;;;;;;;1.82;75.26;94636.31;5019956;28;20222;-67
2022/12/14 09:53:42;;;;;;;18.58;17.08;;;;;;;1.84;75.42;94636.78;5020233;28;20202;-67
2022/12/14 09:56:12;;;;;;;19.67;17.88;;;;;;;1.79;75.70;94626.03;5037505;28;20270;-67
2022/12/14 09:58:41;;;;;;;20.17;18.38;;;;;;;1.77;75.93;94617.38;5037646;28;20229;-67
2022/12/14 10:01:34;;;;;;;24.77;22.58;;;;;;;1.82;75.81;94617.25;5020003;28;20198;-67
2022/12/14 10:04:06;;;;;;;22.10;20.08;;;;;;;1.85;75.74;94613.94;5020060;28;20194;-67
2022/12/14 10:06:37;;;;;;;19.95;18.25;;;;;;;1.87;76.06;94617.13;5037079;28;20201;-67
2022/12/14 10:09:13;;;;;;;16.33;15.02;;;;;;;1.92;76.36;94613.47;5037318;28;20221;-67
2022/12/14 10:11:46;;;;;;;16.15;14.75;;;;;;;1.96;75.88;94600.06;5037299;28;20267;-67
2022/12/14 10:14:17;;;;;;;18.92;17.35;;;;;;;1.99;75.56;94604.88;5036645;28;20183;-67
2022/12/14 10:16:51;;;;;;;35.47;32.47;;;;;;;2.01;75.62;94613.56;5037190;28;20190;-67
2022/12/14 10:19:32;;;;;;;37.78;34.47;;;;;;;2.00;75.83;94609.22;5019816;28;20582;-67
2022/12/14 10:22:00;;;;;;;37.47;34.30;;;;;;;1.99;76.10;94607.59;5019728;28;20205;-67
2022/12/14 10:24:33;;;;;;;36.05;33.13;;;;;;;2.06;76.35;94603.34;5037133;28;20542;-67
2022/12/14 10:27:00;;;;;;;36.80;33.30;;;;;;;2.09;76.12;94597.28;5037038;28;20186;-67
2022/12/14 10:29:32;;;;;;;27.42;24.80;;;;;;;2.13;75.96;94606.41;5015919;28;20238;-67
2022/12/14 10:32:05;;;;;;;19.98;18.17;;;;;;;2.14;76.00;94604.50;5016278;28;20210;-67
2022/12/14 10:34:33;;;;;;;16.15;14.80;;;;;;;2.17;75.99;94601.97;5016545;28;20207;-67
2022/12/14 10:37:08;;;;;;;13.57;12.30;;;;;;;2.17;76.10;94596.53;5016503;28;20286;-67
2022/12/14 10:39:45;;;;;;;11.93;10.90;;;;;;;2.20;75.67;94595.09;5015990;28;20202;-67
2022/12/14 10:42:17;;;;;;;13.25;10.30;;;;;;;2.20;75.49;94597.81;5015993;28;20199;-67
2022/12/14 10:44:51;;;;;;;11.23;10.20;;;;;;;2.16;75.07;94592.19;5016925;28;20192;-67
2022/12/14 10:47:21;;;;;;;11.38;10.43;;;;;;;2.15;75.03;94581.63;5016080;28;20202;-67
2022/12/14 10:49:52;;;;;;;10.90;10.00;;;;;;;2.12;74.31;94580.34;5016027;28;20199;-67
2022/12/14 10:52:20;;;;;;;12.52;11.23;;;;;;;2.16;74.60;94581.31;5016696;28;20210;-67
2022/12/14 10:54:52;;;;;;;10.63;9.73;;;;;;;2.19;74.04;94585.34;5016324;28;20191;-67
2022/12/14 10:57:21;;;;;;;11.18;10.18;;;;;;;2.15;74.06;94570.75;5013383;28;20287;-67
2022/12/14 10:59:48;;;;;;;9.65;8.68;;;;;;;2.19;73.78;94569.00;5015904;28;20199;-67
2022/12/14 11:02:18;;;;;;;13.10;11.80;;;;;;;2.22;73.95;94573.84;5016311;28;20195;-67
2022/12/14 11:04:49;;;;;;;10.13;9.20;;;;;;;2.21;74.01;94568.69;5016018;28;20203;-67
2022/12/14 11:07:18;;;;;;;10.85;9.88;;;;;;;2.24;73.64;94571.59;5015741;28;20214;-67
2022/12/14 11:09:45;;;;;;;9.75;8.88;;;;;;;2.24;73.79;94568.06;5016450;28;20314;-67
2022/12/14 11:12:19;;;;;;;9.85;9.05;;;;;;;2.24;73.62;94554.47;5015462;28;20202;-67
2022/12/14 11:14:59;;;;;;;10.23;9.23;;;;;;;2.26;73.55;94555.75;5015740;28;20202;-67
2022/12/14 11:17:34;;;;;;;12.90;11.80;;;;;;;2.30;73.31;94559.47;5016337;28;20734;-67
2022/12/14 11:20:16;;;;;;;16.27;14.88;;;;;;;2.33;73.66;94560.75;5015369;28;20214;-67
2022/12/14 11:22:45;;;;;;;19.38;17.65;;;;;;;2.32;73.25;94550.97;5016357;28;20191;-67
2022/12/14 11:25:30;;;;;;;15.65;14.30;;;;;;;2.36;73.71;94547.34;5014900;28;20206;-67
2022/12/14 11:27:59;;;;;;;11.60;10.57;;;;;;;2.36;73.25;94547.34;5016048;28;20187;-67
2022/12/14 11:30:27;;;;;;;13.80;12.48;;;;;;;2.36;73.29;94544.63;5031475;28;20567;-67
2022/12/14 11:32:53;;;;;;;12.95;11.85;;;;;;;2.42;73.48;94545.25;5035805;28;20186;-67
2022/12/14 11:35:21;;;;;;;13.90;12.70;;;;;;;2.42;73.56;94537.09;5018424;28;20202;-67
2022/12/14 11:37:50;;;;;;;15.73;14.32;;;;;;;2.45;73.67;94538.41;5018418;28;20221;-67
2022/12/14 11:40:24;;;;;;;16.98;15.38;;;;;;;2.45;73.74;94531.03;5018220;28;20207;-67
2022/12/14 11:42:53;;;;;;;17.75;16.05;;;;;;;2.48;73.76;94544.00;5035732;28;20182;-67
2022/12/14 11:45:30;;;;;;;14.65;13.48;;;;;;;2.46;73.57;94540.78;5018363;28;20195;-67
2022/12/14 11:48:15;;;;;;;15.57;14.18;;;;;;;2.50;73.93;94538.25;5035404;28;20206;-67
2022/12/14 11:50:42;;;;;;;16.42;15.02;;;;;;;2.53;73.82;94529.44;5035744;28;20253;-67
2022/12/14 11:53:11;;;;;;;18.08;16.48;;;;;;;2.61;73.83;94525.94;5017844;28;20201;-67
2022/12/14 11:55:39;;;;;;;23.15;20.98;;;;;;;2.57;73.33;94530.41;5035566;28;20201;-67
2022/12/14 11:58:14;;;;;;;26.35;23.58;;;;;;;2.55;73.22;94524.50;5034977;28;20450;-67